Time;durP1;ratioP1;P1;durP2;ratioP2;P2;SDS_P1;SDS_P2;PMS_P1;PMS_P2;Temp;Humidity;BMP_temperature;BMP_pressure;BME280_temperature;BME280_humidity;BME280_pressure;Samples;Min_cycle;Max_cycle;Signal;HPM_P1;HPM_P2
2023/09/10 00:00:29;;;;;;;25.93;19.07;;;18.90;90.60;;;;;;5032621;28;20390;-76
2023/09/10 00:02:55;;;;;;;28.67;17.27;;;19.10;88.90;;;;;;5033375;28;20387;-75
2023/09/10 00:05:21;;;;;;;27.45;18.25;;;19.20;85.30;;;;;;5034271;28;20490;-74
2023/09/10 00:07:46;;;;;;;28.13;19.07;;;19.00;85.90;;;;;;5033955;28;20383;-76
2023/09/10 00:10:12;;;;;;;31.13;19.60;;;19.00;86.90;;;;;;5035397;28;20415;-76
2023/09/10 00:12:37;;;;;;;26.85;19.73;;;18.90;87.30;;;;;;5040972;28;20405;-75
2023/09/10 00:15:04;;;;;;;24.43;18.27;;;18.90;88.00;;;;;;5048314;28;20394;-77
2023/09/10 00:17:30;;;;;;;27.52;18.90;;;18.90;88.60;;;;;;5046071;28;20398;-75
2023/09/10 00:19:55;;;;;;;26.88;20.00;;;18.90;89.10;;;;;;5029476;28;20414;-77
2023/09/10 00:22:21;;;;;;;27.00;19.37;;;18.80;89.20;;;;;;5028504;28;20394;-78
2023/09/10 00:24:46;;;;;;;30.67;20.05;;;18.80;89.30;;;;;;5052319;28;20437;-77
2023/09/10 00:27:13;;;;;;;26.33;19.10;;;18.80;89.50;;;;;;5050334;28;20425;-75
2023/09/10 00:29:39;;;;;;;31.42;20.10;;;18.70;89.80;;;;;;5047324;28;20394;-77
2023/09/10 00:32:05;;;;;;;29.35;20.75;;;18.70;89.10;;;;;;5051917;28;20403;-76
2023/09/10 00:34:32;;;;;;;26.65;19.30;;;18.90;87.80;;;;;;5050972;28;20390;-75
2023/09/10 00:36:59;;;;;;;28.55;20.27;;;18.90;86.40;;;;;;5049072;28;20872;-75
2023/09/10 00:39:24;;;;;;;23.42;18.02;;;18.90;86.90;;;;;;5052384;28;20387;-76
2023/09/10 00:41:53;;;;;;;27.73;19.80;;;18.90;87.80;;;;;;5053704;28;20414;-77
2023/09/10 00:44:23;;;;;;;27.27;19.45;;;19.00;84.50;;;;;;5051976;28;20398;-77
2023/09/10 00:46:50;;;;;;;26.83;18.60;;;19.00;82.80;;;;;;5046590;28;20816;-76
2023/09/10 00:49:16;;;;;;;28.70;19.80;;;18.90;84.80;;;;;;5051696;28;20402;-78
2023/09/10 00:51:43;;;;;;;25.73;19.17;;;18.80;85.90;;;;;;5042911;28;20414;-76
2023/09/10 00:54:09;;;;;;;26.75;18.58;;;18.70;87.00;;;;;;5040186;28;20394;-76
2023/09/10 00:56:35;;;;;;;24.38;18.98;;;18.80;85.60;;;;;;5039403;28;20752;-74
2023/09/10 00:59:00;;;;;;;23.98;18.90;;;18.90;85.00;;;;;;5034476;28;20398;-76
2023/09/10 01:01:26;;;;;;;28.80;18.60;;;18.90;83.30;;;;;;5033839;28;20394;-76
2023/09/10 01:03:52;;;;;;;27.77;19.20;;;19.00;83.70;;;;;;5034170;28;20411;-75
2023/09/10 01:06:20;;;;;;;25.87;18.43;;;18.90;84.20;;;;;;5033918;28;20752;-75
2023/09/10 01:08:47;;;;;;;25.88;18.80;;;18.80;85.90;;;;;;5034332;28;20379;-75
2023/09/10 01:11:24;;;;;;;25.30;18.55;;;18.80;85.20;;;;;;5034156;28;20755;-76
2023/09/10 01:13:56;;;;;;;24.13;19.07;;;18.80;85.80;;;;;;5034156;28;20391;-74
2023/09/10 01:16:52;;;;;;;25.58;18.60;;;18.90;83.80;;;;;;5033643;28;20378;-76
2023/09/10 01:19:37;;;;;;;26.90;17.95;;;19.00;83.00;;;;;;4995402;28;20391;-73
2023/09/10 01:22:30;;;;;;;22.90;18.25;;;19.00;83.10;;;;;;5033231;28;20379;-75
2023/09/10 01:24:57;;;;;;;28.17;18.42;;;18.80;84.60;;;;;;5033453;28;20402;-75
2023/09/10 01:27:22;;;;;;;26.80;19.23;;;18.80;85.90;;;;;;5033909;28;20419;-75
2023/09/10 01:29:48;;;;;;;25.13;19.30;;;18.90;82.80;;;;;;5033762;28;20388;-74
2023/09/10 01:32:29;;;;;;;25.48;18.08;;;18.90;82.80;;;;;;5033268;28;20387;-74
2023/09/10 01:35:20;;;;;;;27.60;19.27;;;18.80;84.20;;;;;;5033284;28;20383;-75
2023/09/10 01:37:51;;;;;;;23.13;18.70;;;18.70;86.20;;;;;;5021199;28;20482;-74
2023/09/10 01:40:21;;;;;;;24.13;18.87;;;18.60;88.20;;;;;;5033263;28;20857;-74
2023/09/10 01:42:48;;;;;;;23.08;18.65;;;18.50;89.50;;;;;;5032870;28;20399;-75
2023/09/10 01:45:14;;;;;;;25.83;19.52;;;18.60;88.20;;;;;;5033083;28;20376;-75
2023/09/10 01:47:40;;;;;;;25.40;18.20;;;18.60;88.40;;;;;;5032778;28;20450;-75
2023/09/10 01:50:07;;;;;;;27.80;19.73;;;18.50;89.70;;;;;;5032893;28;20477;-74
2023/09/10 01:52:33;;;;;;;30.08;20.02;;;18.40;91.10;;;;;;5032729;28;20383;-75
2023/09/10 01:54:58;;;;;;;30.65;18.90;;;18.40;92.20;;;;;;5033227;28;20749;-76
2023/09/10 01:57:24;;;;;;;27.55;19.60;;;18.50;91.80;;;;;;5033541;28;20405;-74
2023/09/10 01:59:49;;;;;;;28.53;19.43;;;18.40;91.90;;;;;;5033004;28;20388;-76
2023/09/10 02:02:15;;;;;;;24.30;19.10;;;18.30;92.90;;;;;;5032712;28;20464;-76
2023/09/10 02:04:40;;;;;;;27.23;19.70;;;18.30;94.80;;;;;;5032175;28;20442;-75
2023/09/10 02:07:06;;;;;;;29.37;19.17;;;18.30;94.70;;;;;;5032890;28;20382;-76
2023/09/10 02:09:32;;;;;;;26.70;19.75;;;18.30;95.40;;;;;;5033053;28;20379;-75
2023/09/10 02:11:57;;;;;;;24.33;19.00;;;18.20;96.00;;;;;;5032640;28;20406;-75
2023/09/10 02:14:24;;;;;;;28.20;19.87;;;18.20;97.00;;;;;;5032499;28;20390;-75
2023/09/10 02:16:49;;;;;;;27.50;19.75;;;18.10;97.70;;;;;;5032377;28;20873;-75
2023/09/10 02:19:15;;;;;;;28.27;20.00;;;18.10;98.20;;;;;;5032700;28;20458;-76
2023/09/10 02:21:40;;;;;;;24.65;19.55;;;18.10;98.70;;;;;;5032350;28;20402;-75
2023/09/10 02:24:06;;;;;;;25.20;20.17;;;18.20;97.70;;;;;;5032138;28;20403;-75
2023/09/10 02:26:31;;;;;;;27.00;19.50;;;18.10;98.00;;;;;;5032310;28;20383;-76
2023/09/10 02:28:57;;;;;;;29.80;20.20;;;18.10;98.60;;;;;;5032088;28;20849;-76
2023/09/10 02:31:22;;;;;;;27.65;20.67;;;18.30;96.00;;;;;;5032269;28;20389;-75
2023/09/10 02:33:48;;;;;;;24.30;19.07;;;18.30;93.90;;;;;;5031750;28;20747;-76
2023/09/10 02:36:14;;;;;;;26.27;19.27;;;18.30;95.20;;;;;;5032133;28;20578;-75
2023/09/10 02:38:39;;;;;;;26.70;19.53;;;18.30;95.70;;;;;;5032343;28;20383;-75
2023/09/10 02:41:05;;;;;;;28.53;20.50;;;18.20;95.70;;;;;;5031911;28;20929;-74
2023/09/10 02:43:30;;;;;;;23.67;19.48;;;18.10;96.90;;;;;;5032323;28;20434;-75
2023/09/10 02:45:56;;;;;;;27.27;19.63;;;18.10;98.00;;;;;;5031928;28;20394;-75
2023/09/10 02:48:21;;;;;;;28.25;20.52;;;18.10;99.20;;;;;;5031714;28;20440;-75
2023/09/10 02:50:47;;;;;;;23.55;18.92;;;18.10;97.60;;;;;;5032451;28;20379;-75
2023/09/10 02:53:13;;;;;;;23.83;19.70;;;18.10;97.90;;;;;;5032077;28;20721;-75
2023/09/10 02:55:38;;;;;;;25.93;19.40;;;18.10;98.60;;;;;;5031712;28;20398;-74
2023/09/10 02:58:04;;;;;;;28.15;20.60;;;18.10;99.20;;;;;;5031696;28;20393;-74
2023/09/10 03:00:30;;;;;;;24.95;19.48;;;18.10;97.40;;;;;;5031599;28;20398;-75
2023/09/10 03:02:56;;;;;;;28.23;20.07;;;18.10;97.70;;;;;;5031060;28;20721;-75
2023/09/10 03:05:22;;;;;;;30.43;20.40;;;18.10;97.80;;;;;;5031889;28;20395;-75
2023/09/10 03:07:52;;;;;;;29.67;20.43;;;18.00;99.00;;;;;;5031204;28;20795;-75
2023/09/10 03:10:17;;;;;;;27.42;20.40;;;18.00;99.70;;;;;;5031456;28;20392;-75
2023/09/10 03:12:43;;;;;;;25.90;19.73;;;17.90;99.90;;;;;;5031457;28;20960;-75
2023/09/10 03:15:09;;;;;;;24.85;20.00;;;17.90;99.90;;;;;;5031358;28;20390;-75
2023/09/10 03:17:34;;;;;;;25.02;20.55;;;18.00;99.90;;;;;;5032271;28;20387;-75
2023/09/10 03:20:00;;;;;;;25.37;19.60;;;17.90;99.90;;;;;;5013940;28;20390;-75
2023/09/10 03:22:25;;;;;;;31.40;20.83;;;17.80;99.90;;;;;;5031946;28;20379;-75
2023/09/10 03:24:51;;;;;;;27.13;20.55;;;17.80;99.90;;;;;;5031396;28;20407;-75
2023/09/10 03:27:17;;;;;;;27.65;20.33;;;17.80;99.90;;;;;;5031131;28;20379;-74
2023/09/10 03:29:44;;;;;;;29.60;20.70;;;17.90;99.90;;;;;;5031227;28;20392;-75
2023/09/10 03:32:09;;;;;;;25.02;19.73;;;18.00;99.90;;;;;;5031498;28;20740;-75
2023/09/10 03:34:35;;;;;;;27.23;20.03;;;18.00;99.90;;;;;;5031008;28;20387;-75
2023/09/10 03:37:03;;;;;;;28.70;20.75;;;17.90;99.90;;;;;;5031381;28;20880;-74
2023/09/10 03:39:28;;;;;;;26.08;21.35;;;17.90;99.90;;;;;;5033735;28;20395;-74
2023/09/10 03:41:54;;;;;;;28.73;20.17;;;17.90;99.90;;;;;;5034500;28;20387;-75
2023/09/10 03:44:20;;;;;;;25.50;20.10;;;17.90;99.90;;;;;;5032587;28;20403;-75
2023/09/10 03:46:46;;;;;;;23.70;19.40;;;17.90;99.90;;;;;;5032414;28;20399;-75
2023/09/10 03:49:12;;;;;;;27.92;20.85;;;17.90;99.90;;;;;;5046854;28;20375;-74
2023/09/10 03:51:40;;;;;;;28.43;21.43;;;17.90;99.90;;;;;;5052948;28;20402;-75
2023/09/10 03:54:07;;;;;;;25.73;20.77;;;17.80;99.90;;;;;;5050979;28;20389;-75
2023/09/10 03:56:33;;;;;;;22.17;18.73;;;17.90;99.90;;;;;;5047177;28;20441;-75
2023/09/10 03:58:58;;;;;;;29.50;20.00;;;17.80;99.90;;;;;;5036443;28;20395;-76
2023/09/10 04:01:24;;;;;;;27.50;20.10;;;17.80;99.90;;;;;;5030633;28;20393;-76
2023/09/10 04:03:49;;;;;;;25.42;19.35;;;17.80;99.90;;;;;;5030834;28;20407;-74
2023/09/10 04:06:15;;;;;;;27.80;20.07;;;17.80;99.90;;;;;;5030759;28;20803;-75
2023/09/10 04:08:41;;;;;;;25.03;20.67;;;17.70;99.90;;;;;;5031235;28;20436;-76
2023/09/10 04:11:08;;;;;;;26.50;20.50;;;17.70;99.90;;;;;;5031390;28;20407;-75
2023/09/10 04:13:34;;;;;;;25.20;20.25;;;17.70;99.90;;;;;;5031381;28;20387;-75
2023/09/10 04:16:00;;;;;;;27.37;20.67;;;17.60;99.90;;;;;;5031550;28;20919;-75
2023/09/10 04:18:25;;;;;;;31.45;21.40;;;17.60;99.90;;;;;;5031055;28;20887;-75
2023/09/10 04:20:51;;;;;;;28.25;19.77;;;17.70;99.90;;;;;;5030519;28;20403;-76
2023/09/10 04:23:16;;;;;;;26.00;20.50;;;17.70;99.90;;;;;;5030836;28;20414;-74
2023/09/10 04:25:42;;;;;;;30.52;22.30;;;17.70;99.90;;;;;;5030702;28;20482;-75
2023/09/10 04:28:07;;;;;;;28.87;21.40;;;17.70;99.90;;;;;;5031034;28;20425;-74
2023/09/10 04:30:33;;;;;;;25.90;20.70;;;17.70;99.90;;;;;;5030759;28;20395;-75
2023/09/10 04:32:58;;;;;;;27.42;20.95;;;17.70;99.90;;;;;;5030668;28;20927;-75
2023/09/10 04:35:24;;;;;;;28.23;21.97;;;17.70;99.90;;;;;;5030517;28;20379;-75
2023/09/10 04:37:49;;;;;;;29.33;21.48;;;17.70;99.90;;;;;;5030561;28;20482;-75
2023/09/10 04:40:15;;;;;;;30.55;21.90;;;17.70;99.90;;;;;;5030471;28;20413;-76
2023/09/10 04:42:41;;;;;;;30.20;21.60;;;17.90;99.90;;;;;;5030642;28;20811;-74
2023/09/10 04:45:07;;;;;;;30.07;21.90;;;17.90;99.90;;;;;;5032018;28;20498;-76
2023/09/10 04:47:32;;;;;;;31.25;21.98;;;17.90;99.90;;;;;;5012632;28;20733;-74
2023/09/10 04:49:58;;;;;;;28.67;21.70;;;18.00;99.90;;;;;;5030338;28;20402;-75
2023/09/10 04:52:24;;;;;;;28.67;21.27;;;17.90;99.90;;;;;;5030107;28;20411;-75
2023/09/10 04:54:50;;;;;;;27.20;22.10;;;17.90;99.90;;;;;;5030456;28;20383;-75
2023/09/10 04:57:15;;;;;;;27.30;21.30;;;17.80;99.90;;;;;;5033371;28;20379;-74
2023/09/10 04:59:41;;;;;;;31.77;22.23;;;17.80;99.90;;;;;;5033736;28;20402;-75
2023/09/10 05:02:06;;;;;;;31.75;21.10;;;17.80;99.90;;;;;;5033552;28;20383;-74
2023/09/10 05:04:32;;;;;;;33.40;21.80;;;17.70;99.90;;;;;;5033725;28;20438;-76
2023/09/10 05:06:58;;;;;;;26.43;21.70;;;17.80;99.90;;;;;;5034031;28;20391;-75
2023/09/10 05:09:24;;;;;;;29.53;21.30;;;17.90;99.90;;;;;;5033613;28;20391;-75
2023/09/10 05:11:50;;;;;;;27.58;21.35;;;17.80;99.90;;;;;;5033538;28;20390;-75
2023/09/10 05:14:18;;;;;;;31.30;22.02;;;17.80;99.90;;;;;;5033363;28;20725;-75
2023/09/10 05:16:44;;;;;;;32.78;22.88;;;17.80;99.90;;;;;;5033662;28;20761;-75
2023/09/10 05:19:10;;;;;;;30.00;21.17;;;17.80;99.90;;;;;;5033599;28;20429;-76
2023/09/10 05:21:35;;;;;;;25.77;20.90;;;17.90;99.90;;;;;;5033328;28;20383;-75
2023/09/10 05:24:01;;;;;;;25.90;20.50;;;17.90;99.90;;;;;;5033332;28;20415;-75
2023/09/10 05:26:26;;;;;;;29.48;21.13;;;18.00;99.80;;;;;;5033081;28;20393;-74
2023/09/10 05:28:53;;;;;;;29.03;21.17;;;18.00;99.60;;;;;;5033164;28;20387;-75
2023/09/10 05:31:18;;;;;;;31.20;21.05;;;18.00;99.90;;;;;;5033111;28;20461;-74
2023/09/10 05:33:44;;;;;;;28.13;20.85;;;18.10;99.80;;;;;;5033415;28;20545;-75
2023/09/10 05:36:10;;;;;;;25.60;19.87;;;18.10;99.00;;;;;;5033539;28;20426;-75
2023/09/10 05:38:35;;;;;;;31.00;21.80;;;18.30;97.20;;;;;;5033101;28;20379;-75
2023/09/10 05:41:02;;;;;;;27.90;20.75;;;18.40;93.80;;;;;;5033124;28;20383;-75
2023/09/10 05:43:31;;;;;;;30.88;20.73;;;18.50;92.70;;;;;;5032749;28;20404;-74
2023/09/10 05:45:57;;;;;;;27.00;19.87;;;18.70;88.60;;;;;;5032963;28;20402;-74
2023/09/10 05:48:23;;;;;;;29.05;21.05;;;18.70;87.10;;;;;;5033132;28;20398;-75
2023/09/10 05:50:49;;;;;;;27.05;19.40;;;18.80;87.30;;;;;;5033560;28;20383;-76
2023/09/10 05:53:14;;;;;;;28.30;19.80;;;18.80;87.10;;;;;;5033382;28;20475;-76
2023/09/10 05:55:41;;;;;;;31.23;19.97;;;18.80;87.90;;;;;;5033353;28;20389;-75
2023/09/10 05:58:08;;;;;;;26.67;19.52;;;18.80;87.60;;;;;;5033349;28;20415;-76
2023/09/10 06:00:33;;;;;;;23.00;19.35;;;18.90;87.10;;;;;;5033725;28;20399;-76
2023/09/10 06:02:59;;;;;;;35.47;23.23;;;19.00;85.60;;;;;;5033252;28;20888;-75
2023/09/10 06:05:24;;;;;;;26.57;19.13;;;19.10;85.40;;;;;;5032496;28;20399;-76
2023/09/10 06:07:50;;;;;;;28.40;19.95;;;19.30;84.10;;;;;;5031573;28;20740;-75
2023/09/10 06:10:16;;;;;;;27.70;17.90;;;19.30;80.70;;;;;;5032519;28;20398;-75
2023/09/10 06:12:43;;;;;;;22.67;17.43;;;19.40;79.70;;;;;;5037057;28;20470;-75
2023/09/10 06:15:08;;;;;;;22.90;17.83;;;19.60;80.00;;;;;;5045899;28;20414;-74
2023/09/10 06:17:34;;;;;;;24.88;17.52;;;19.70;77.70;;;;;;5046115;28;20383;-74
2023/09/10 06:20:00;;;;;;;26.65;17.10;;;19.80;77.00;;;;;;5042781;28;20891;-76
2023/09/10 06:22:26;;;;;;;27.65;17.55;;;20.00;75.10;;;;;;5049478;28;20391;-75
2023/09/10 06:24:51;;;;;;;22.50;16.33;;;20.10;72.80;;;;;;5049157;28;20418;-75
2023/09/10 06:27:17;;;;;;;24.30;16.03;;;20.20;72.20;;;;;;5050406;28;20387;-76
2023/09/10 06:29:43;;;;;;;26.20;16.67;;;20.40;68.30;;;;;;5048932;28;20418;-75
2023/09/10 06:32:08;;;;;;;22.67;15.60;;;20.60;67.60;;;;;;5046178;28;20441;-74
2023/09/10 06:34:34;;;;;;;23.80;16.10;;;20.80;65.70;;;;;;5046927;28;20406;-76
2023/09/10 06:37:00;;;;;;;21.40;15.43;;;21.00;62.70;;;;;;5036914;28;20442;-75
2023/09/10 06:39:26;;;;;;;31.77;16.30;;;21.10;62.30;;;;;;5036147;28;20390;-75
2023/09/10 06:41:54;;;;;;;23.87;14.33;;;21.20;59.20;;;;;;5038640;28;20383;-75
2023/09/10 06:44:19;;;;;;;22.77;15.18;;;21.20;58.60;;;;;;5039570;28;20403;-77
2023/09/10 06:46:45;;;;;;;26.00;15.32;;;21.20;58.40;;;;;;5039601;28;20414;-76
2023/09/10 06:49:10;;;;;;;26.92;15.15;;;21.40;56.90;;;;;;5039126;28;20405;-75
2023/09/10 06:51:36;;;;;;;23.00;14.57;;;21.50;55.70;;;;;;5038746;28;20391;-75
2023/09/10 06:54:02;;;;;;;23.63;14.80;;;21.60;55.10;;;;;;5038845;28;20382;-76
2023/09/10 06:56:29;;;;;;;23.83;14.90;;;21.70;54.60;;;;;;5038685;28;20383;-76
2023/09/10 06:58:55;;;;;;;28.65;15.50;;;21.80;53.30;;;;;;5038574;28;20387;-76
2023/09/10 07:01:21;;;;;;;26.80;14.70;;;21.90;52.80;;;;;;5037612;28;20397;-76
2023/09/10 07:03:49;;;;;;;24.77;14.70;;;21.90;53.50;;;;;;5037330;28;20407;-76
2023/09/10 07:06:15;;;;;;;22.38;14.80;;;22.10;51.50;;;;;;5037499;28;20426;-76
2023/09/10 07:08:40;;;;;;;25.87;14.63;;;22.20;50.00;;;;;;5036115;28;20387;-75
2023/09/10 07:11:06;;;;;;;22.30;13.80;;;22.20;48.20;;;;;;5037576;28;20383;-74
2023/09/10 07:13:31;;;;;;;28.70;14.20;;;22.20;47.00;;;;;;5038236;28;20382;-76
2023/09/10 07:15:57;;;;;;;29.30;14.15;;;22.30;47.30;;;;;;5036845;28;20802;-76
2023/09/10 07:18:22;;;;;;;25.17;13.90;;;22.40;46.50;;;;;;5035859;28;20394;-75
2023/09/10 07:20:48;;;;;;;26.33;15.30;;;22.50;46.20;;;;;;5035565;28;20402;-75
2023/09/10 07:23:13;;;;;;;29.27;15.07;;;22.60;45.70;;;;;;5035175;28;20469;-74
2023/09/10 07:25:39;;;;;;;26.50;14.70;;;22.60;45.10;;;;;;5034121;28;20433;-75
2023/09/10 07:28:06;;;;;;;23.50;13.97;;;22.70;45.80;;;;;;5034200;28;20497;-75
2023/09/10 07:30:32;;;;;;;28.60;14.60;;;22.80;45.10;;;;;;5035207;28;20422;-76
2023/09/10 07:32:57;;;;;;;27.88;14.15;;;22.90;44.60;;;;;;5034894;28;20746;-75
2023/09/10 07:35:23;;;;;;;21.90;13.90;;;23.00;44.90;;;;;;5037103;28;20413;-75
2023/09/10 07:37:48;;;;;;;32.83;13.83;;;23.10;43.80;;;;;;5036426;28;20425;-76
2023/09/10 07:40:14;;;;;;;26.27;14.40;;;23.20;42.90;;;;;;5037228;28;20383;-76
2023/09/10 07:42:40;;;;;;;26.45;14.48;;;23.30;43.20;;;;;;5036542;28;20445;-76
2023/09/10 07:45:13;;;;;;;23.02;14.80;;;23.30;43.00;;;;;;5036636;28;20407;-76
2023/09/10 07:47:40;;;;;;;28.60;14.55;;;23.30;42.70;;;;;;5032089;28;20894;-76
2023/09/10 07:50:06;;;;;;;22.38;14.27;;;23.40;42.40;;;;;;5033653;28;20441;-76
2023/09/10 07:52:31;;;;;;;21.55;14.30;;;23.40;42.30;;;;;;5033523;28;20759;-76
2023/09/10 07:54:57;;;;;;;25.63;13.55;;;23.60;41.60;;;;;;5016393;28;20420;-76
2023/09/10 07:57:24;;;;;;;24.17;14.70;;;23.70;41.40;;;;;;5034038;28;20869;-75
2023/09/10 07:59:50;;;;;;;24.77;13.40;;;23.90;40.30;;;;;;5033390;28;20868;-76
2023/09/10 08:02:16;;;;;;;27.02;13.32;;;24.10;39.50;;;;;;5031909;28;20391;-76
2023/09/10 08:04:43;;;;;;;27.42;13.07;;;24.20;39.00;;;;;;5033954;28;20411;-76
2023/09/10 08:07:10;;;;;;;23.38;13.18;;;24.10;38.70;;;;;;5033032;28;20939;-74
2023/09/10 08:09:36;;;;;;;18.48;11.90;;;24.00;38.80;;;;;;5034602;28;20446;-75
2023/09/10 08:12:02;;;;;;;23.42;12.88;;;24.10;38.50;;;;;;5035883;28;20387;-74
2023/09/10 08:14:28;;;;;;;25.20;12.90;;;24.30;38.90;;;;;;5036243;28;20437;-77
2023/09/10 08:16:53;;;;;;;28.53;13.37;;;24.40;38.20;;;;;;5034626;28;20886;-77
2023/09/10 08:19:19;;;;;;;21.52;11.80;;;24.50;37.20;;;;;;5014949;28;20480;-75
2023/09/10 08:21:45;;;;;;;18.27;12.27;;;24.60;37.50;;;;;;5032220;28;20395;-76
2023/09/10 08:24:11;;;;;;;20.75;12.00;;;24.70;37.80;;;;;;5031797;28;20403;-76
2023/09/10 08:26:36;;;;;;;24.53;12.10;;;24.80;37.60;;;;;;5031689;28;20960;-76
2023/09/10 08:29:02;;;;;;;26.50;12.15;;;24.90;36.80;;;;;;5031918;28;20410;-77
2023/09/10 08:31:27;;;;;;;18.83;12.20;;;25.20;35.70;;;;;;5034552;28;20383;-77
2023/09/10 08:33:53;;;;;;;25.13;11.38;;;25.10;35.30;;;;;;5036378;28;20387;-77
2023/09/10 08:36:18;;;;;;;18.97;12.00;;;25.20;35.50;;;;;;5036353;28;20418;-77
2023/09/10 08:38:44;;;;;;;17.38;11.52;;;25.30;35.00;;;;;;5035401;28;20775;-76
2023/09/10 08:41:28;;;;;;;20.47;12.07;;;25.30;34.90;;;;;;5034777;28;20513;-76
2023/09/10 08:43:56;;;;;;;18.95;11.75;;;25.40;35.10;;;;;;5035361;28;21050;-77
2023/09/10 08:46:25;;;;;;;27.90;12.10;;;25.40;34.60;;;;;;5036265;28;20388;-76
2023/09/10 08:48:52;;;;;;;17.48;11.80;;;25.40;34.20;;;;;;5034512;28;20835;-76
2023/09/10 08:51:18;;;;;;;21.05;11.38;;;25.50;34.00;;;;;;5034471;28;20383;-76
2023/09/10 08:53:45;;;;;;;22.95;10.55;;;25.60;33.80;;;;;;5016758;28;20398;-76
2023/09/10 08:56:12;;;;;;;21.98;11.27;;;25.70;33.30;;;;;;5034214;28;20391;-77
2023/09/10 08:58:38;;;;;;;22.95;11.82;;;25.80;33.60;;;;;;5034013;28;20387;-76
2023/09/10 09:01:06;;;;;;;23.08;10.70;;;25.80;32.80;;;;;;5034878;28;20490;-76
2023/09/10 09:03:32;;;;;;;19.30;10.40;;;25.90;32.20;;;;;;5035462;28;20477;-77
2023/09/10 09:06:02;;;;;;;15.17;10.53;;;26.10;32.80;;;;;;5035808;28;20448;-75
2023/09/10 09:08:30;;;;;;;16.30;10.15;;;26.20;32.80;;;;;;5036373;28;20379;-76
2023/09/10 09:10:58;;;;;;;16.23;11.00;;;26.30;32.60;;;;;;5036010;28;20412;-76
2023/09/10 09:13:25;;;;;;;21.67;11.52;;;26.30;30.70;;;;;;5019655;28;20478;-76
2023/09/10 09:15:52;;;;;;;25.90;10.25;;;26.20;31.30;;;;;;5038734;28;20383;-76
2023/09/10 09:18:20;;;;;;;19.73;11.18;;;26.20;31.80;;;;;;5037203;28;20390;-75
2023/09/10 09:20:48;;;;;;;20.00;10.50;;;26.30;31.30;;;;;;5037558;28;20397;-75
2023/09/10 09:23:20;;;;;;;22.38;11.07;;;26.40;31.70;;;;;;5039025;28;20390;-76
2023/09/10 09:25:47;;;;;;;20.33;10.73;;;26.60;31.00;;;;;;5037704;28;20390;-76
2023/09/10 09:28:13;;;;;;;21.77;10.90;;;26.80;31.10;;;;;;5034703;28;20390;-75
2023/09/10 09:30:39;;;;;;;14.50;10.27;;;26.80;30.80;;;;;;5036514;28;20817;-76
2023/09/10 09:33:05;;;;;;;18.65;10.23;;;26.80;29.80;;;;;;5035974;28;20418;-77
2023/09/10 09:35:33;;;;;;;25.33;10.73;;;27.00;28.90;;;;;;5033838;28;20406;-76
2023/09/10 09:38:13;;;;;;;24.10;10.50;;;27.20;28.70;;;;;;5034050;28;20391;-76
2023/09/10 09:40:39;;;;;;;21.10;11.05;;;27.20;27.50;;;;;;5034654;28;20399;-75
2023/09/10 09:43:09;;;;;;;17.75;10.30;;;27.30;28.10;;;;;;5032195;28;20390;-75
2023/09/10 09:45:39;;;;;;;18.80;9.60;;;27.40;27.50;;;;;;5033645;28;20391;-75
2023/09/10 09:48:05;;;;;;;21.00;10.45;;;27.40;26.80;;;;;;5034896;28;20483;-76
2023/09/10 09:50:31;;;;;;;15.85;9.25;;;27.40;26.60;;;;;;5033087;28;20466;-74
2023/09/10 09:52:57;;;;;;;26.92;10.70;;;27.70;25.00;;;;;;5033448;28;20387;-75
2023/09/10 09:55:23;;;;;;;21.58;10.40;;;27.80;25.50;;;;;;5033380;28;20887;-75
2023/09/10 09:57:49;;;;;;;28.13;11.20;;;27.90;25.50;;;;;;5033912;28;20410;-76
2023/09/10 10:00:16;;;;;;;18.65;10.63;;;27.80;25.00;;;;;;5033129;28;20452;-75
2023/09/10 10:02:42;;;;;;;19.25;9.88;;;27.80;24.10;;;;;;5032668;28;20891;-77
2023/09/10 10:05:08;;;;;;;22.17;9.32;;;27.90;23.90;;;;;;5032666;28;20776;-77
2023/09/10 10:07:37;;;;;;;16.27;8.98;;;28.00;24.30;;;;;;5032657;28;20375;-76
2023/09/10 10:10:07;;;;;;;14.82;9.05;;;28.00;23.80;;;;;;5032812;28;20438;-76
2023/09/10 10:12:33;;;;;;;14.45;8.90;;;28.20;22.90;;;;;;5032779;28;20384;-76
2023/09/10 10:14:59;;;;;;;16.33;8.57;;;28.40;22.10;;;;;;5033312;28;20397;-76
2023/09/10 10:17:26;;;;;;;17.35;8.02;;;28.40;22.50;;;;;;5033672;28;20387;-77
2023/09/10 10:19:52;;;;;;;17.50;8.75;;;28.40;21.60;;;;;;5032679;28;20475;-76
2023/09/10 10:22:22;;;;;;;16.70;8.60;;;28.60;21.20;;;;;;5032362;28;20419;-76
2023/09/10 10:24:49;;;;;;;13.82;8.10;;;28.70;21.10;;;;;;5014664;28;20431;-76
2023/09/10 10:27:16;;;;;;;16.05;8.88;;;28.90;20.70;;;;;;5032709;28;20415;-76
2023/09/10 10:29:42;;;;;;;17.87;8.40;;;28.80;20.30;;;;;;5032554;28;20398;-74
2023/09/10 10:32:16;;;;;;;16.17;8.18;;;28.80;20.40;;;;;;5031646;28;20395;-76
2023/09/10 10:34:51;;;;;;;18.90;8.23;;;28.90;20.00;;;;;;5032077;28;20390;-75
2023/09/10 10:37:24;;;;;;;21.83;8.93;;;28.80;20.30;;;;;;5032146;28;20741;-77
2023/09/10 10:40:08;;;;;;;19.95;8.43;;;28.90;21.10;;;;;;5032738;28;20409;-75
2023/09/10 10:43:03;;;;;;;20.02;8.95;;;29.20;21.20;;;;;;5045037;28;20403;-75
2023/09/10 10:45:30;;;;;;;15.10;8.70;;;29.30;20.80;;;;;;5042974;28;20416;-75
2023/09/10 10:48:02;;;;;;;20.77;8.95;;;29.20;20.50;;;;;;5050960;28;20396;-75
2023/09/10 10:50:29;;;;;;;17.43;9.10;;;29.20;20.70;;;;;;5051618;28;20370;-76
2023/09/10 10:53:04;;;;;;;15.38;7.78;;;29.40;20.50;;;;;;5033107;28;20381;-75
2023/09/10 10:55:32;;;;;;;12.88;8.40;;;29.40;19.40;;;;;;5048872;28;20399;-77
2023/09/10 10:57:58;;;;;;;20.15;8.35;;;29.50;19.70;;;;;;5032013;28;20478;-75
2023/09/10 11:00:24;;;;;;;20.25;8.65;;;29.50;19.90;;;;;;5031567;28;20478;-76
2023/09/10 11:03:13;;;;;;;18.08;8.40;;;29.60;19.70;;;;;;5043168;28;20405;-74
2023/09/10 11:05:54;;;;;;;22.67;8.50;;;29.60;19.80;;;;;;5035901;28;20522;-74
2023/09/10 11:08:26;;;;;;;15.90;8.15;;;29.70;19.20;;;;;;5049207;28;20426;-74
2023/09/10 11:10:52;;;;;;;14.88;8.05;;;29.70;19.00;;;;;;5057578;28;20385;-79
2023/09/10 11:13:18;;;;;;;15.93;9.23;;;29.70;19.00;;;;;;5036325;28;20397;-76
2023/09/10 11:16:05;;;;;;;16.63;8.10;;;29.70;18.60;;;;;;5051614;28;20384;-75
2023/09/10 11:18:36;;;;;;;12.73;6.97;;;29.70;18.10;;;;;;5045454;28;20393;-76
2023/09/10 11:21:03;;;;;;;27.85;8.40;;;29.90;17.80;;;;;;5050543;28;20400;-75
2023/09/10 11:23:30;;;;;;;17.17;8.10;;;29.90;18.20;;;;;;5047523;28;20407;-74
2023/09/10 11:26:14;;;;;;;19.13;9.65;;;30.00;18.00;;;;;;5040990;28;20470;-75
2023/09/10 11:28:51;;;;;;;14.87;8.60;;;30.20;18.10;;;;;;5031346;28;20897;-75
2023/09/10 11:31:35;;;;;;;18.30;8.02;;;30.20;17.60;;;;;;5050493;28;20390;-76
2023/09/10 11:34:23;;;;;;;16.83;9.67;;;30.30;17.70;;;;;;5050183;28;20385;-76
2023/09/10 11:36:55;;;;;;;20.80;8.80;;;30.30;17.80;;;;;;5050659;28;20381;-76
2023/09/10 11:39:21;;;;;;;16.45;8.73;;;30.40;18.20;;;;;;5050973;28;20389;-76
2023/09/10 11:41:50;;;;;;;18.13;8.00;;;30.30;18.70;;;;;;5050410;28;20389;-76
2023/09/10 11:44:16;;;;;;;17.27;8.32;;;30.30;17.90;;;;;;5050435;28;20449;-74
2023/09/10 11:46:42;;;;;;;18.90;8.57;;;30.30;17.50;;;;;;5050984;28;20490;-74
2023/09/10 11:49:07;;;;;;;22.10;8.60;;;30.20;17.60;;;;;;5050953;28;20381;-74
2023/09/10 11:51:44;;;;;;;17.30;8.73;;;30.50;17.40;;;;;;5050759;28;20385;-75
2023/09/10 11:54:16;;;;;;;15.18;7.70;;;30.60;17.40;;;;;;5050701;28;20881;-75
2023/09/10 11:56:45;;;;;;;26.25;8.65;;;30.60;17.00;;;;;;5051085;28;20719;-76
2023/09/10 11:59:12;;;;;;;16.73;9.70;;;30.80;16.70;;;;;;5033317;28;20456;-75
2023/09/10 12:01:39;;;;;;;18.02;8.73;;;30.90;17.20;;;;;;5050534;28;20389;-75
2023/09/10 12:04:04;;;;;;;17.80;8.48;;;30.90;16.60;;;;;;5050224;28;20437;-76
2023/09/10 12:06:30;;;;;;;15.63;7.87;;;31.00;16.40;;;;;;5052972;28;20432;-75
2023/09/10 12:08:55;;;;;;;16.83;7.60;;;30.90;16.00;;;;;;5054936;28;20386;-75
2023/09/10 12:11:22;;;;;;;12.38;7.53;;;31.00;16.10;;;;;;5054963;28;20388;-76
2023/09/10 12:13:48;;;;;;;15.68;7.07;;;31.10;15.70;;;;;;5060159;28;20393;-76
2023/09/10 12:16:14;;;;;;;14.70;6.93;;;31.20;15.50;;;;;;5061679;28;20423;-76
2023/09/10 12:18:40;;;;;;;12.07;6.43;;;31.10;14.40;;;;;;5055828;28;20789;-75
2023/09/10 12:21:06;;;;;;;14.35;7.22;;;31.10;14.70;;;;;;5054367;28;20390;-76
2023/09/10 12:23:32;;;;;;;13.65;7.07;;;31.30;14.60;;;;;;5054358;28;20459;-76
2023/09/10 12:25:59;;;;;;;13.05;6.68;;;31.20;15.80;;;;;;5054245;28;20443;-76
2023/09/10 12:28:25;;;;;;;10.45;6.50;;;31.20;15.40;;;;;;5054682;28;20458;-76